Time;durP1;ratioP1;P1;durP2;ratioP2;P2;SDS_P1;SDS_P2;PMS_P1;PMS_P2;Temp;Humidity;BMP_temperature;BMP_pressure;BME280_temperature;BME280_humidity;BME280_pressure;Samples;Min_cycle;Max_cycle;Signal;HPM_P1;HPM_P2
2022/09/23 00:02:09;;;;;;;;;;;;;;;10.97;95.62;101721.91;5017829;28;19970;-45
2022/09/23 00:04:34;;;;;;;;;;;;;;;10.97;95.31;101727.25;5016697;28;19921;-41
2022/09/23 00:07:00;;;;;;;;;;;;;;;10.99;95.05;101722.59;5017768;28;19945;-42
2022/09/23 00:09:25;;;;;;;;;;;;;;;10.98;95.85;101725.41;5018108;28;19971;-43
2022/09/23 00:11:50;;;;;;;;;;;;;;;10.97;95.59;101727.25;5017718;28;19917;-43
2022/09/23 00:14:16;;;;;;;;;;;;;;;10.97;95.43;101721.06;5015806;28;19932;-44
2022/09/23 00:16:41;;;;;;;;;;;;;;;10.96;96.05;101717.56;5018474;28;20004;-41
2022/09/23 00:19:06;;;;;;;;;;;;;;;10.96;97.55;101714.91;5017185;28;20038;-43
2022/09/23 00:21:32;;;;;;;;;;;;;;;10.96;95.73;101714.91;5017495;28;19924;-41
2022/09/23 00:23:57;;;;;;;;;;;;;;;10.96;96.36;101714.91;5018041;28;19923;-43
2022/09/23 00:26:22;;;;;;;;;;;;;;;10.96;96.14;101717.56;5019332;28;19993;-43
2022/09/23 00:28:48;;;;;;;;;;;;;;;10.94;95.48;101710.66;5020772;28;20301;-42
2022/09/23 00:31:14;;;;;;;;;;;;;;;10.93;96.54;101707.16;5018628;28;20015;-44
2022/09/23 00:33:40;;;;;;;;;;;;;;;10.90;96.86;101702.09;5013660;28;20004;-42
2022/09/23 00:36:06;;;;;;;;;;;;;;;10.87;97.05;101696.19;5019685;28;19995;-44
2022/09/23 00:38:32;;;;;;;;;;;;;;;10.82;96.36;101692.09;5021900;28;19928;-44
2022/09/23 00:40:58;;;;;;;;;;;;;;;10.81;98.71;101694.91;5021019;28;19926;-45
2022/09/23 00:43:36;;;;;;;;;;;;;;;10.80;97.08;101696.75;5020605;28;19921;-43
2022/09/23 00:46:02;;;;;;;;;;;;;;;10.80;97.80;101693.25;5021414;28;19948;-44
2022/09/23 00:48:27;;;;;;;;;;;;;;;10.77;98.53;101690.84;5021333;28;19913;-43
2022/09/23 00:50:53;;;;;;;;;;;;;;;10.75;97.33;101682.97;5019757;28;19929;-46
2022/09/23 00:53:21;;;;;;;;;;;;;;;10.75;97.34;101684.81;5036779;28;19924;-43
2022/09/23 00:55:48;;;;;;;;;;;;;;;10.72;96.86;101690.44;5021114;28;20011;-42
2022/09/23 00:58:16;;;;;;;;;;;;;;;10.70;96.82;101692.41;5019476;28;19913;-46
2022/09/23 01:00:42;;;;;;;;;;;;;;;10.68;96.93;101678.34;5021094;28;19960;-42
2022/09/23 01:03:08;;;;;;;;;;;;;;;10.66;97.89;101681.16;5020759;28;19921;-44
2022/09/23 01:05:35;;;;;;;;;;;;;;;10.67;97.77;101690.00;5019168;28;20281;-41
2022/09/23 01:08:01;;;;;;;;;;;;;;;10.63;96.74;101690.28;5021069;28;19941;-43
2022/09/23 01:10:32;;;;;;;;;;;;;;;10.60;97.60;101681.72;5020182;28;19933;-44
2022/09/23 01:13:04;;;;;;;;;;;;;;;10.57;96.84;101680.19;5020669;28;19925;-44
2022/09/23 01:15:40;;;;;;;;;;;;;;;10.53;97.81;101681.44;5020816;28;19924;-43
2022/09/23 01:18:05;;;;;;;;;;;;;;;10.52;97.09;101681.56;5020966;28;19913;-45
2022/09/23 01:20:37;;;;;;;;;;;;;;;10.51;96.49;101682.56;5019273;28;20436;-44
2022/09/23 01:23:26;;;;;;;;;;;;;;;10.50;96.65;101681.69;5018740;28;20389;-43
2022/09/23 01:25:58;;;;;;;;;;;;;;;10.46;97.33;101680.31;5020022;28;19981;-41
2022/09/23 01:28:44;;;;;;;;;;;;;;;10.42;97.20;101684.22;5019656;28;19917;-44
2022/09/23 01:31:09;;;;;;;;;;;;;;;10.37;97.45;101682.00;5018418;28;20004;-44
2022/09/23 01:33:35;;;;;;;;;;;;;;;10.35;97.57;101680.44;5020594;28;20207;-45
2022/09/23 01:36:11;;;;;;;;;;;;;;;10.35;97.59;101677.75;5018864;28;19924;-43
2022/09/23 01:38:40;;;;;;;;;;;;;;;10.34;97.47;101676.09;5018566;28;20333;-41
2022/09/23 01:41:14;;;;;;;;;;;;;;;10.32;97.51;101673.56;5007154;28;19922;-41
2022/09/23 01:43:58;;;;;;;;;;;;;;;10.32;97.74;101672.69;5004711;28;20419;-42
2022/09/23 01:46:26;;;;;;;;;;;;;;;10.30;97.18;101674.63;5020039;28;20995;-41
2022/09/23 01:49:03;;;;;;;;;;;;;;;10.28;97.67;101666.75;5018032;28;19959;-42
2022/09/23 01:51:34;;;;;;;;;;;;;;;10.29;98.08;101670.28;5020376;28;19917;-41
2022/09/23 01:54:14;;;;;;;;;;;;;;;10.30;98.29;101670.13;5019089;28;20395;-43
2022/09/23 01:56:51;;;;;;;;;;;;;;;10.30;97.73;101663.94;5017627;28;20035;-44
2022/09/23 01:59:16;;;;;;;;;;;;;;;10.29;97.94;101665.78;5018440;28;19928;-44
2022/09/23 02:01:51;;;;;;;;;;;;;;;10.28;98.08;101674.75;5018218;28;19916;-42
2022/09/23 02:04:22;;;;;;;;;;;;;;;10.29;99.53;101667.63;5019633;28;20012;-43
2022/09/23 02:06:57;;;;;;;;;;;;;;;10.31;99.01;101665.66;5018896;28;19968;-44
2022/09/23 02:09:24;;;;;;;;;;;;;;;10.31;99.23;101663.81;5019500;28;19947;-43
2022/09/23 02:11:51;;;;;;;;;;;;;;;10.32;98.64;101662.88;5008987;28;19918;-43
2022/09/23 02:14:16;;;;;;;;;;;;;;;10.31;98.37;101658.47;5013515;28;19991;-42
2022/09/23 02:16:49;;;;;;;;;;;;;;;10.31;97.89;101663.81;5019041;28;19914;-41
2022/09/23 02:19:21;;;;;;;;;;;;;;;10.32;98.01;101657.53;5018361;28;19913;-43
2022/09/23 02:21:54;;;;;;;;;;;;;;;10.31;98.37;101645.13;5006306;28;20360;-43
2022/09/23 02:24:24;;;;;;;;;;;;;;;10.28;98.96;101648.06;5019259;28;20380;-45
2022/09/23 02:26:56;;;;;;;;;;;;;;;10.29;99.37;101647.09;5016887;28;19925;-45
2022/09/23 02:29:41;;;;;;;;;;;;;;;10.25;99.20;101635.00;5017528;28;19913;-42
2022/09/23 02:32:16;;;;;;;;;;;;;;;10.29;99.22;101641.75;5006099;28;19917;-43
2022/09/23 02:34:42;;;;;;;;;;;;;;;10.27;100.00;101633.88;5019343;28;20007;-42
2022/09/23 02:37:11;;;;;;;;;;;;;;;10.24;100.00;101634.16;5018215;28;20027;-41
2022/09/23 02:39:41;;;;;;;;;;;;;;;10.19;100.00;101635.56;5018564;28;19919;-41
2022/09/23 02:42:11;;;;;;;;;;;;;;;10.16;100.00;101633.16;5016822;28;19964;-40
2022/09/23 02:44:36;;;;;;;;;;;;;;;10.14;100.00;101627.13;5018391;28;20353;-40
2022/09/23 02:47:02;;;;;;;;;;;;;;;10.09;100.00;101628.38;5018593;28;20016;-45
2022/09/23 02:49:28;;;;;;;;;;;;;;;10.02;100.00;101616.56;5019274;28;20376;-42
2022/09/23 02:51:54;;;;;;;;;;;;;;;10.04;99.75;101627.13;5017143;28;19960;-44
2022/09/23 02:54:21;;;;;;;;;;;;;;;10.00;100.00;101615.88;5018778;28;19967;-43
2022/09/23 02:56:48;;;;;;;;;;;;;;;9.99;100.00;101608.84;5017452;28;20000;-43
2022/09/23 02:59:18;;;;;;;;;;;;;;;10.00;100.00;101609.72;5017277;28;20117;-43
2022/09/23 03:01:51;;;;;;;;;;;;;;;9.96;100.00;101609.16;5016715;28;19935;-42
2022/09/23 03:04:19;;;;;;;;;;;;;;;9.94;100.00;101607.56;5017966;28;19932;-46
2022/09/23 03:06:53;;;;;;;;;;;;;;;9.93;100.00;101606.75;5033202;28;20399;-45
2022/09/23 03:09:22;;;;;;;;;;;;;;;9.90;100.00;101599.84;5018537;28;20311;-45
2022/09/23 03:11:52;;;;;;;;;;;;;;;9.88;100.00;101600.97;5016586;28;19917;-41
2022/09/23 03:14:35;;;;;;;;;;;;;;;9.83;100.00;101597.88;5017779;28;19917;-43
2022/09/23 03:17:05;;;;;;;;;;;;;;;9.79;99.92;101604.44;5017816;28;19921;-43
2022/09/23 03:19:33;;;;;;;;;;;;;;;9.73;100.00;101592.53;5018501;28;19917;-43
2022/09/23 03:22:01;;;;;;;;;;;;;;;9.70;100.00;101596.28;5018218;28;19927;-42
2022/09/23 03:24:30;;;;;;;;;;;;;;;9.67;100.00;101593.06;5018393;28;20356;-43
2022/09/23 03:26:59;;;;;;;;;;;;;;;9.63;100.00;101597.81;5013976;28;19919;-41
2022/09/23 03:29:24;;;;;;;;;;;;;;;9.58;100.00;101589.38;5017193;28;19916;-44
2022/09/23 03:31:50;;;;;;;;;;;;;;;9.57;100.00;101594.84;5015951;28;19928;-41
2022/09/23 03:34:25;;;;;;;;;;;;;;;9.58;100.00;101599.22;5033070;28;20595;-43
2022/09/23 03:37:01;;;;;;;;;;;;;;;9.57;100.00;101593.03;5017320;28;19917;-42
2022/09/23 03:39:39;;;;;;;;;;;;;;;9.56;100.00;101591.34;5017916;28;19968;-45
2022/09/23 03:42:15;;;;;;;;;;;;;;;9.56;100.00;101591.34;5016262;28;19936;-45
2022/09/23 03:44:44;;;;;;;;;;;;;;;9.55;100.00;101596.81;5017232;28;20423;-46
2022/09/23 03:47:11;;;;;;;;;;;;;;;9.54;100.00;101604.00;5016545;28;19917;-43
2022/09/23 03:49:38;;;;;;;;;;;;;;;9.56;100.00;101595.84;5018443;28;19923;-47
2022/09/23 03:52:04;;;;;;;;;;;;;;;9.56;100.00;101593.19;5003945;28;20352;-42
2022/09/23 03:54:29;;;;;;;;;;;;;;;9.56;100.00;101594.03;5018345;28;19935;-42
2022/09/23 03:56:56;;;;;;;;;;;;;;;9.56;100.00;101583.34;5015561;28;20131;-44
2022/09/23 03:59:22;;;;;;;;;;;;;;;9.55;100.00;101580.81;5017193;28;19914;-42
2022/09/23 04:01:47;;;;;;;;;;;;;;;9.53;100.00;101575.63;5019022;28;19928;-43
2022/09/23 04:04:12;;;;;;;;;;;;;;;9.53;100.00;101584.44;5021120;28;19955;-41
2022/09/23 04:06:37;;;;;;;;;;;;;;;9.50;100.00;101574.09;5021691;28;19917;-41
2022/09/23 04:09:03;;;;;;;;;;;;;;;9.49;100.00;101579.56;5021463;28;20011;-42
2022/09/23 04:11:28;;;;;;;;;;;;;;;9.47;100.00;101576.16;5019520;28;19921;-42
2022/09/23 04:13:56;;;;;;;;;;;;;;;9.44;100.00;101574.63;5020437;28;20495;-43
2022/09/23 04:16:22;;;;;;;;;;;;;;;9.45;100.00;101580.78;5020678;28;19913;-42
2022/09/23 04:18:48;;;;;;;;;;;;;;;9.43;100.00;101578.25;5021522;28;19928;-44
2022/09/23 04:21:13;;;;;;;;;;;;;;;9.41;100.00;101580.22;5020535;28;19909;-44
2022/09/23 04:23:38;;;;;;;;;;;;;;;9.37;100.00;101586.81;5021780;28;20267;-44
2022/09/23 04:26:04;;;;;;;;;;;;;;;9.37;100.00;101577.94;5019687;28;19987;-42
2022/09/23 04:28:30;;;;;;;;;;;;;;;9.38;100.00;101574.31;5020343;28;20306;-43
2022/09/23 04:30:56;;;;;;;;;;;;;;;9.38;100.00;101576.97;5020547;28;19921;-43
2022/09/23 04:33:22;;;;;;;;;;;;;;;9.38;100.00;101576.97;5020530;28;19913;-43
2022/09/23 04:35:49;;;;;;;;;;;;;;;9.38;100.00;101585.81;5021297;28;19935;-44
2022/09/23 04:38:14;;;;;;;;;;;;;;;9.39;100.00;101574.19;5020512;28;19992;-44
2022/09/23 04:40:39;;;;;;;;;;;;;;;9.39;100.00;101578.69;5015110;28;20400;-43
2022/09/23 04:43:04;;;;;;;;;;;;;;;9.36;100.00;101577.13;5016161;28;19913;-44
2022/09/23 04:45:30;;;;;;;;;;;;;;;9.37;100.00;101576.16;5021278;28;19957;-42
2022/09/23 04:47:57;;;;;;;;;;;;;;;9.39;100.00;101574.19;5019969;28;20011;-41
2022/09/23 04:50:22;;;;;;;;;;;;;;;9.39;100.00;101576.00;5020701;28;19963;-45
2022/09/23 04:52:47;;;;;;;;;;;;;;;9.39;100.00;101565.34;5020808;28;19917;-41
2022/09/23 04:55:13;;;;;;;;;;;;;;;9.44;100.00;101568.44;5020359;28;19920;-44
2022/09/23 04:57:38;;;;;;;;;;;;;;;9.49;100.00;101563.56;5018247;28;20459;-44
2022/09/23 05:00:03;;;;;;;;;;;;;;;9.51;100.00;101561.59;5020849;28;20351;-43
2022/09/23 05:02:29;;;;;;;;;;;;;;;9.54;100.00;101561.31;5020159;28;20418;-40
2022/09/23 05:04:55;;;;;;;;;;;;;;;9.56;100.00;101559.34;5019516;28;19916;-41
2022/09/23 05:07:20;;;;;;;;;;;;;;;9.59;100.00;101556.41;5020213;28;20152;-40
2022/09/23 05:09:45;;;;;;;;;;;;;;;9.62;100.00;101557.94;5020798;28;19925;-42
2022/09/23 05:12:10;;;;;;;;;;;;;;;9.61;100.00;101557.13;5017254;28;20356;-43
2022/09/23 05:14:37;;;;;;;;;;;;;;;9.63;100.00;101556.97;5019423;28;20384;-44
2022/09/23 05:17:03;;;;;;;;;;;;;;;9.63;100.00;101562.31;5020390;28;20240;-42
2022/09/23 05:19:28;;;;;;;;;;;;;;;9.61;100.00;101570.44;5019987;28;20396;-41
2022/09/23 05:21:53;;;;;;;;;;;;;;;9.61;100.00;101566.94;5019546;28;20360;-44
2022/09/23 05:24:18;;;;;;;;;;;;;;;9.62;100.00;101572.16;5020204;28;19917;-43
2022/09/23 05:26:43;;;;;;;;;;;;;;;9.63;100.00;101568.47;5018672;28;19924;-45
2022/09/23 05:29:09;;;;;;;;;;;;;;;9.63;100.00;101573.81;5018827;28;19917;-44
2022/09/23 05:31:35;;;;;;;;;;;;;;;9.65;100.00;101569.19;5013165;28;20627;-42
2022/09/23 05:34:01;;;;;;;;;;;;;;;9.68;100.00;101568.09;5020208;28;19932;-42
2022/09/23 05:36:27;;;;;;;;;;;;;;;9.68;100.00;101568.91;5018930;28;19952;-43
2022/09/23 05:38:56;;;;;;;;;;;;;;;9.72;100.00;101577.47;5019563;28;19914;-43
2022/09/23 05:41:21;;;;;;;;;;;;;;;9.73;100.00;101578.34;5018066;28;19974;-44
2022/09/23 05:43:47;;;;;;;;;;;;;;;9.71;100.00;101586.47;5019518;28;20390;-42
2022/09/23 05:46:13;;;;;;;;;;;;;;;9.66;100.00;101578.06;5018632;28;19970;-46
2022/09/23 05:48:39;;;;;;;;;;;;;;;9.64;100.00;101585.31;5019833;28;19923;-42
2022/09/23 05:51:10;;;;;;;;;;;;;;;9.62;100.00;101579.28;5018236;28;19921;-42
2022/09/23 05:53:35;;;;;;;;;;;;;;;9.64;100.00;101580.00;5004132;28;20017;-42
2022/09/23 05:56:01;;;;;;;;;;;;;;;9.63;100.00;101575.66;4997235;28;20363;-45
2022/09/23 05:58:27;;;;;;;;;;;;;;;9.59;100.00;101577.75;4998397;28;19921;-44
2022/09/23 06:00:55;;;;;;;;;;;;;;;9.57;100.00;101584.19;4999052;28;19949;-40
2022/09/23 06:03:21;;;;;;;;;;;;;;;9.56;100.00;101586.03;5000243;28;19922;-43
2022/09/23 06:05:47;;;;;;;;;;;;;;;9.53;100.00;101576.47;4997306;28;19921;-42
2022/09/23 06:08:12;;;;;;;;;;;;;;;9.58;100.00;101584.06;5004233;28;20002;-45
2022/09/23 06:10:38;;;;;;;;;;;;;;;9.62;100.00;101580.16;5009465;28;19980;-42
2022/09/23 06:13:04;;;;;;;;;;;;;;;9.64;100.00;101577.31;4997704;28;19917;-43
2022/09/23 06:15:29;;;;;;;;;;;;;;;9.66;100.00;101575.38;5011912;28;20307;-45
2022/09/23 06:17:54;;;;;;;;;;;;;;;9.68;100.00;101579.59;4999003;28;20280;-44
2022/09/23 06:20:19;;;;;;;;;;;;;;;9.74;100.00;101575.50;4999135;28;19917;-43
2022/09/23 06:22:45;;;;;;;;;;;;;;;9.77;100.00;101574.41;5001128;28;20257;-45
2022/09/23 06:25:11;;;;;;;;;;;;;;;9.77;100.00;101577.09;5015126;28;20482;-43
2022/09/23 06:27:36;;;;;;;;;;;;;;;9.75;100.00;101573.72;5012252;28;19913;-45
2022/09/23 06:30:01;;;;;;;;;;;;;;;9.73;100.00;101571.19;5016897;28;19977;-42
2022/09/23 06:32:26;;;;;;;;;;;;;;;9.70;100.00;101576.78;5017484;28;20023;-42
2022/09/23 06:34:51;;;;;;;;;;;;;;;9.74;100.00;101562.19;5017513;28;19913;-42
2022/09/23 06:37:17;;;;;;;;;;;;;;;9.79;100.00;101561.78;5018662;28;19920;-45
2022/09/23 06:39:42;;;;;;;;;;;;;;;9.85;100.00;101561.22;5013684;28;20016;-43
2022/09/23 06:42:07;;;;;;;;;;;;;;;9.93;100.00;101558.72;5013962;28;19912;-43
2022/09/23 06:44:32;;;;;;;;;;;;;;;9.99;100.00;101560.81;5016685;28;20015;-43
2022/09/23 06:46:57;;;;;;;;;;;;;;;10.02;100.00;101563.19;5015755;28;19914;-46
2022/09/23 06:49:23;;;;;;;;;;;;;;;10.07;100.00;101568.13;5016498;28;19928;-42
2022/09/23 06:51:48;;;;;;;;;;;;;;;10.05;100.00;101570.94;5003422;28;20284;-38
2022/09/23 06:54:13;;;;;;;;;;;;;;;10.05;100.00;101572.78;4998373;28;19917;-40
2022/09/23 06:56:39;;;;;;;;;;;;;;;10.05;100.00;101576.28;5000568;28;19933;-39
2022/09/23 06:59:04;;;;;;;;;;;;;;;10.08;100.00;101576.00;5009777;28;20299;-40
2022/09/23 07:01:29;;;;;;;;;;;;;;;10.14;100.00;101573.75;5001658;28;19960;-39
2022/09/23 07:03:55;;;;;;;;;;;;;;;10.22;100.00;101561.38;5001660;28;20040;-37
2022/09/23 07:06:20;;;;;;;;;;;;;;;10.29;100.00;101567.00;5006054;28;19917;-39
2022/09/23 07:08:48;;;;;;;;;;;;;;;10.33;100.00;101568.41;5004131;28;19995;-39
2022/09/23 07:11:14;;;;;;;;;;;;;;;10.38;100.00;101566.16;4996916;28;19945;-39
2022/09/23 07:13:41;;;;;;;;;;;;;;;10.47;100.00;101559.13;4996965;28;19913;-39
2022/09/23 07:16:07;;;;;;;;;;;;;;;10.54;100.00;101562.06;4998083;28;20342;-39
2022/09/23 07:18:33;;;;;;;;;;;;;;;10.67;100.00;101569.78;4999080;28;19932;-40
2022/09/23 07:21:10;;;;;;;;;;;;;;;10.83;100.00;101568.19;4997768;28;19917;-39
2022/09/23 07:23:36;;;;;;;;;;;;;;;10.98;100.00;101559.69;4998794;28;20392;-39
2022/09/23 07:26:02;;;;;;;;;;;;;;;11.05;100.00;101566.19;4997140;28;20351;-39
2022/09/23 07:28:28;;;;;;;;;;;;;;;11.07;100.00;101571.38;4996352;28;20024;-39
2022/09/23 07:30:53;;;;;;;;;;;;;;;11.07;100.00;101572.22;5009101;28;20049;-39
2022/09/23 07:33:18;;;;;;;;;;;;;;;11.07;100.00;101566.03;4998665;28;20012;-39
2022/09/23 07:35:43;;;;;;;;;;;;;;;11.08;100.00;101565.03;4997787;28;19914;-39
2022/09/23 07:38:09;;;;;;;;;;;;;;;11.14;100.00;101573.31;4998433;28;20040;-39
2022/09/23 07:40:34;;;;;;;;;;;;;;;11.23;100.00;101573.41;5011850;28;19929;-38
2022/09/23 07:43:00;;;;;;;;;;;;;;;11.30;100.00;101570.00;5013088;28;20004;-39
2022/09/23 07:45:26;;;;;;;;;;;;;;;11.33;100.00;101572.38;5010818;28;19921;-39
2022/09/23 07:47:52;;;;;;;;;;;;;;;11.38;100.00;101574.59;5014698;28;20420;-42
2022/09/23 07:50:17;;;;;;;;;;;;;;;11.41;100.00;101560.94;5001386;28;21031;-43
2022/09/23 07:52:43;;;;;;;;;;;;;;;11.49;100.00;101562.84;4998324;28;20426;-42
2022/09/23 07:55:08;;;;;;;;;;;;;;;11.60;100.00;101567.19;4998117;28;20341;-43
2022/09/23 07:57:33;;;;;;;;;;;;;;;11.73;100.00;101573.00;4995675;28;20036;-43
2022/09/23 07:59:59;;;;;;;;;;;;;;;11.77;100.00;101572.53;4998200;28;20372;-46
2022/09/23 08:02:25;;;;;;;;;;;;;;;11.73;100.00;101579.19;4996750;28;19917;-44
2022/09/23 08:04:50;;;;;;;;;;;;;;;11.87;100.00;101577.00;4997889;28;20560;-45
2022/09/23 08:07:16;;;;;;;;;;;;;;;11.93;100.00;101579.94;4997428;28;19913;-42
2022/09/23 08:09:42;;;;;;;;;;;;;;;11.98;100.00;101578.63;5002115;28;19968;-43
2022/09/23 08:12:07;;;;;;;;;;;;;;;12.03;100.00;101581.69;4996487;28;19994;-43
2022/09/23 08:14:33;;;;;;;;;;;;;;;12.08;100.00;101582.06;4998741;28;20033;-42
2022/09/23 08:16:58;;;;;;;;;;;;;;;12.12;100.00;101580.78;4997115;28;20008;-42
2022/09/23 08:19:23;;;;;;;;;;;;;;;12.21;100.00;101577.19;4997092;28;20286;-44
2022/09/23 08:21:50;;;;;;;;;;;;;;;12.27;100.00;101581.94;4997660;28;20165;-41
2022/09/23 08:24:17;;;;;;;;;;;;;;;12.38;100.00;101580.84;4997774;28;19920;-42
2022/09/23 08:26:46;;;;;;;;;;;;;;;12.47;100.00;101585.28;5009584;28;20405;-43
2022/09/23 08:29:12;;;;;;;;;;;;;;;12.61;100.00;101588.38;5001708;28;19921;-45
2022/09/23 08:31:37;;;;;;;;;;;;;;;12.73;100.00;101586.28;5014767;28;19983;-42
2022/09/23 08:34:03;;;;;;;;;;;;;;;12.81;100.00;101572.94;5014743;28;20350;-42
2022/09/23 08:36:28;;;;;;;;;;;;;;;12.92;100.00;101583.41;5009268;28;20291;-43
2022/09/23 08:38:54;;;;;;;;;;;;;;;13.04;100.00;101584.81;4998812;28;20398;-44
2022/09/23 08:41:34;;;;;;;;;;;;;;;13.22;100.00;101587.44;5013840;28;19986;-42
2022/09/23 08:44:13;;;;;;;;;;;;;;;13.34;100.00;101585.34;5014506;28;19995;-43
2022/09/23 08:46:46;;;;;;;;;;;;;;;13.47;100.00;101586.72;5013446;28;19917;-42
2022/09/23 08:49:16;;;;;;;;;;;;;;;13.61;100.00;101578.03;5016901;28;19924;-43
2022/09/23 08:51:45;;;;;;;;;;;;;;;13.77;100.00;101579.94;5019815;28;19963;-43
2022/09/23 08:54:11;;;;;;;;;;;;;;;13.85;100.00;101574.59;5004586;28;19924;-41
2022/09/23 08:56:37;;;;;;;;;;;;;;;13.91;99.96;101576.59;4998877;28;19925;-42
2022/09/23 08:59:07;;;;;;;;;;;;;;;14.02;98.92;101572.78;5011315;28;20380;-44
2022/09/23 09:01:41;;;;;;;;;;;;;;;14.18;99.24;101570.09;5007977;28;20307;-44
2022/09/23 09:04:26;;;;;;;;;;;;;;;14.39;98.37;101565.22;5002476;28;20538;-45
2022/09/23 09:06:55;;;;;;;;;;;;;;;14.65;96.24;101568.59;5000666;28;19914;-42
2022/09/23 09:09:29;;;;;;;;;;;;;;;14.84;95.31;101571.94;5016900;28;20428;-44
2022/09/23 09:12:09;;;;;;;;;;;;;;;14.94;95.65;101566.38;4997518;28;19922;-42
2022/09/23 09:14:43;;;;;;;;;;;;;;;15.11;94.94;101571.50;5001298;28;20340;-44
2022/09/23 09:17:19;;;;;;;;;;;;;;;15.26;89.80;101566.25;4999765;28;19925;-43
2022/09/23 09:19:51;;;;;;;;;;;;;;;15.30;91.04;101569.44;5001269;28;19914;-45
2022/09/23 09:22:39;;;;;;;;;;;;;;;15.38;91.27;101568.56;5016783;28;19917;-42
2022/09/23 09:25:25;;;;;;;;;;;;;;;15.47;87.70;101562.94;4999333;28;19929;-43
2022/09/23 09:27:50;;;;;;;;;;;;;;;15.50;89.47;101566.31;4997361;28;20133;-45
2022/09/23 09:30:16;;;;;;;;;;;;;;;15.67;87.14;101562.53;5007232;28;19913;-43
2022/09/23 09:32:56;;;;;;;;;;;;;;;15.78;87.40;101564.00;5002933;28;19918;-45
2022/09/23 09:35:36;;;;;;;;;;;;;;;15.86;88.69;101558.56;4999690;28;20297;-42
2022/09/23 09:38:02;;;;;;;;;;;;;;;16.06;86.81;101560.81;5002334;28;19924;-42
2022/09/23 09:40:27;;;;;;;;;;;;;;;16.29;88.79;101553.50;5000311;28;19917;-42
2022/09/23 09:42:53;;;;;;;;;;;;;;;16.46;84.72;101550.69;4997158;28;19984;-44
2022/09/23 09:45:23;;;;;;;;;;;;;;;16.45;85.14;101557.13;5003869;28;19976;-43
2022/09/23 09:47:55;;;;;;;;;;;;;;;16.45;82.98;101557.13;5019155;28;20003;-42
2022/09/23 09:50:39;;;;;;;;;;;;;;;16.37;82.55;101558.84;5019999;28;19968;-42
2022/09/23 09:53:22;;;;;;;;;;;;;;;16.35;84.63;101555.50;5019455;28;19921;-42
2022/09/23 09:56:08;;;;;;;;;;;;;;;16.50;84.16;101549.31;5017702;28;19917;-42
2022/09/23 09:58:40;;;;;;;;;;;;;;;16.69;85.06;101554.16;5017789;28;19935;-41
2022/09/23 10:01:06;;;;;;;;;;;;;;;16.89;83.41;101546.41;5017770;28;19917;-43
2022/09/23 10:03:42;;;;;;;;;;;;;;;17.10;82.15;101559.13;5008653;28;19933;-43
2022/09/23 10:06:15;;;;;;;;;;;;;;;17.16;77.45;101549.47;5014414;28;19917;-43
2022/09/23 10:08:45;;;;;;;;;;;;;;;17.07;80.04;101547.88;5005998;28;19993;-46
2022/09/23 10:11:15;;;;;;;;;;;;;;;17.06;79.94;101547.06;4998033;28;20193;-45
2022/09/23 10:13:41;;;;;;;;;;;;;;;17.02;77.31;101537.63;4998867;28;19913;-41
2022/09/23 10:16:08;;;;;;;;;;;;;;;17.03;77.82;101539.31;4996805;28;22476;-42
2022/09/23 10:18:36;;;;;;;;;;;;;;;17.19;77.30;101540.97;4999603;28;20003;-42
2022/09/23 10:21:06;;;;;;;;;;;;;;;17.35;79.38;101542.66;5001352;28;19916;-44
2022/09/23 10:23:32;;;;;;;;;;;;;;;17.55;77.95;101537.50;4999584;28;19947;-47
2022/09/23 10:25:59;;;;;;;;;;;;;;;17.69;76.47;101533.88;5001332;28;19917;-43
2022/09/23 10:28:36;;;;;;;;;;;;;;;17.77;78.83;101538.34;4997732;28;20106;-42
2022/09/23 10:31:10;;;;;;;;;;;;;;;17.82;75.91;101540.44;4998731;28;20004;-42
2022/09/23 10:33:39;;;;;;;;;;;;;;;17.89;75.65;101536.00;4998832;28;19920;-44
2022/09/23 10:36:07;;;;;;;;;;;;;;;17.89;75.06;101534.13;5004475;28;19948;-42
2022/09/23 10:38:32;;;;;;;;;;;;;;;17.89;76.83;101530.59;4999575;28;19914;-43
2022/09/23 10:46:45;;;;;;;;;;;;;;;17.96;74.92;101538.78;5012026;28;19948;-44
2022/09/23 10:49:20;;;;;;;;;;;;;;;17.98;73.54;101526.72;5004393;28;19952;-45
2022/09/23 10:51:54;;;;;;;;;;;;;;;17.99;74.91;101531.13;5011096;28;19940;-43
2022/09/23 10:54:34;;;;;;;;;;;;;;;18.03;74.31;101529.69;5013232;28;20300;-42
2022/09/23 10:57:36;;;;;;;;;;;;;;;18.07;73.82;101528.28;5010977;28;20352;-45
2022/09/23 10:59:56;;;;;;;;;;;;;;;18.15;73.41;101523.78;5016047;28;20015;-42
2022/09/23 11:02:28;;;;;;;;;;;;;;;18.22;73.27;101516.53;4999967;28;19921;-45
2022/09/23 11:04:56;;;;;;;;;;;;;;;18.23;74.96;101520.94;4997690;28;20302;-44
2022/09/23 11:07:38;;;;;;;;;;;;;;;18.31;76.53;101526.19;4998030;28;20876;-41
2022/09/23 11:10:03;;;;;;;;;;;;;;;18.45;73.50;101525.25;4998187;28;19924;-44
2022/09/23 11:12:41;;;;;;;;;;;;;;;18.40;69.94;101522.31;4995390;28;20117;-43
2022/09/23 11:15:10;;;;;;;;;;;;;;;18.35;72.48;101522.06;4997998;28;20596;-42
2022/09/23 11:17:43;;;;;;;;;;;;;;;18.49;69.33;101520.28;5006041;28;19914;-45
2022/09/23 11:20:21;;;;;;;;;;;;;;;18.61;71.32;101513.28;5007601;28;19943;-43
2022/09/23 11:23:14;;;;;;;;;;;;;;;18.70;68.59;101511.25;4997798;28;19978;-42
2022/09/23 11:26:12;;;;;;;;;;;;;;;18.72;70.63;101511.06;4997718;28;19933;-44
2022/09/23 11:29:02;;;;;;;;;;;;;;;18.81;68.29;101512.59;5000311;28;19917;-41
2022/09/23 11:31:33;;;;;;;;;;;;;;;18.78;69.36;101519.22;5002108;28;19944;-43
2022/09/23 11:34:19;;;;;;;;;;;;;;;18.85;69.42;101510.34;4998042;28;19921;-42
2022/09/23 11:37:00;;;;;;;;;;;;;;;19.01;68.34;101508.16;4993720;28;19917;-42
2022/09/23 11:39:52;;;;;;;;;;;;;;;19.18;69.32;101507.81;4998611;28;20365;-40
2022/09/23 11:42:23;;;;;;;;;;;;;;;19.26;68.34;101510.31;4993460;28;19921;-41
2022/09/23 11:44:53;;;;;;;;;;;;;;;19.26;66.69;101504.91;4998350;28;20234;-42
2022/09/23 11:47:22;;;;;;;;;;;;;;;19.27;69.30;101495.75;5015752;28;19944;-43
2022/09/23 11:49:55;;;;;;;;;;;;;;;19.41;67.63;101501.22;5015472;28;19917;-42
2022/09/23 11:52:35;;;;;;;;;;;;;;;19.31;68.64;101494.28;5010240;28;19918;-41
2022/09/23 11:55:16;;;;;;;;;;;;;;;19.21;65.01;101491.13;4998597;28;19968;-42
2022/09/23 11:57:44;;;;;;;;;;;;;;;18.99;64.82;101488.56;4996856;28;20002;-45
2022/09/23 12:00:20;;;;;;;;;;;;;;;19.09;65.86;101487.34;4999210;28;19921;-41
2022/09/23 12:03:04;;;;;;;;;;;;;;;19.29;66.17;101482.84;4999544;28;19944;-42
2022/09/23 12:05:43;;;;;;;;;;;;;;;19.28;63.90;101483.91;4999567;28;19940;-43
2022/09/23 12:08:25;;;;;;;;;;;;;;;19.22;64.02;101478.44;4998347;28;20020;-41
2022/09/23 12:10:56;;;;;;;;;;;;;;;19.26;63.94;101479.72;4996212;28;20292;-44
2022/09/23 12:13:36;;;;;;;;;;;;;;;19.33;64.27;101483.25;4996257;28;19953;-43
2022/09/23 12:16:08;;;;;;;;;;;;;;;19.39;65.22;101480.56;4997312;28;19913;-42
2022/09/23 12:18:44;;;;;;;;;;;;;;;19.43;65.61;101475.56;4997335;28;19922;-41
2022/09/23 12:21:28;;;;;;;;;;;;;;;19.46;64.66;101479.78;5000895;28;19929;-44
2022/09/23 12:24:06;;;;;;;;;;;;;;;19.38;63.80;101476.22;5005570;28;19946;-43
2022/09/23 12:26:31;;;;;;;;;;;;;;;19.30;65.45;101481.81;4999067;28;19927;-42
2022/09/23 12:29:02;;;;;;;;;;;;;;;19.24;65.78;101484.50;5001183;28;19910;-42
2022/09/23 12:31:31;;;;;;;;;;;;;;;19.23;66.31;101482.81;5001333;28;19918;-43
2022/09/23 12:34:00;;;;;;;;;;;;;;;19.16;65.43;101477.38;5000916;28;19921;-43
2022/09/23 12:36:28;;;;;;;;;;;;;;;19.11;66.78;101471.72;5000575;28;19971;-44
2022/09/23 12:39:00;;;;;;;;;;;;;;;19.11;65.61;101472.59;5000749;28;20412;-43
2022/09/23 12:41:27;;;;;;;;;;;;;;;19.08;67.77;101464.88;4998426;28;19913;-41
2022/09/23 12:43:55;;;;;;;;;;;;;;;19.12;68.06;101465.28;5000869;28;19914;-43
2022/09/23 12:46:27;;;;;;;;;;;;;;;19.03;66.34;101471.94;5012680;28;19974;-42
2022/09/23 12:48:56;;;;;;;;;;;;;;;18.93;65.38;101469.59;5020575;28;20394;-43
2022/09/23 12:51:22;;;;;;;;;;;;;;;18.91;64.81;101463.56;5020429;28;20348;-42
2022/09/23 12:53:49;;;;;;;;;;;;;;;18.89;64.89;101466.47;5015236;28;19996;-45